Accueil
METAR-TAF:

METAR-TAF

Aéroports :

Aéroport international de Wellington

Wellington, Nouvelle-Zélande

latitude: 41-20S, longitude: 174-48E, altitude: 12 m

Observation

Le bulletin a été fait il y a 37 minutes, à 20:00 UTC
Vent 11 kt de nord
Température 14°C
Humidité 82%
Pression 1027 hPa
Visibilité 10 km ou plus

METAR: NZWN 212000Z AUTO 01011KT 9999 NCD 14/11 Q1027 NOSIG

Heure: 09:37 (20:37 UTC)

Prévision

Le bulletin a été fait il y a 3 heures et 33 minutes, à 17:04 UTC
Prévision valable du 21 à 18 UTC au 22 à 18 UTC
Vent 10 kt de nord/nord-est
Visibilité 10 km ou plus
Quelques nuages à une hauteur de 2000 ft
Temporairement
du 22 à 11 UTC au 22 à 18 UTC
Nuages fragmentés à une hauteur de 1400 ft

TAF: NZWN 211704Z 2118/2218 02010KT 9999 FEW020 TEMPO 2211/2218 BKN014

Observations et prévisions météorologiques de plus de 4000 aéroports (messages METAR et TAF).

Les stations disponibles sont représentées par des disques jaunes et rouges sur la carte.

Passer la souris dessus pour voir le nom de la station.

Cliquer dessus pour voir les observations et prévisions météorologiques.

Pour changer de carte: cliquez sur les boutons verts avec une croix noire pour zoomer, sur le bouton vert avec un tiret pour effectuer un zoom arrière, ou sur les flèches vertes pour les cartes adjacentes.


METAR-TAF: